Coronel Enrique Soto Cano Air Base
MHSC : rendu visible

Aérodrome :











RETROUVEZ-NOUS SUR...

 
LOGIN :

S'inscrire | Disclaimer

   EN    FR    IT 

 









Légende :    VFR   VFR Marginal   IFR   IFR Intensif   IFR Très Intensif
Visi : 
Plafond : 
>= 8 km
>= 3000ft
5 à 8 km
1000 à 3000 ft
1500m à 5 km
500 à 1000 ft
800 à 1500m
200 à 500 ft
< 800m
< 200 ft
Symboles :   Orages  Brouillard  Fortes neiges  Fortes précipitations  Vent > 20 kt






- Altitude de l'aérodrome : 2061 ft
- Code IATA : XPL


MHSC - Coronel Enrique Soto Cano Air Base

DERNIER METAR :
  • 272158Z 35011KT 9999 FEW100 33/15 A2993 RMK AO2A SLPNO T03270148 $

METARs EXPIRÉS :
  • 272058Z 36008KT 9999 SCT120 33/17 A2993 RMK AO2A SLPNO T03310172 57028 $
  • 271958Z 00000KT 9999 FEW200 32/17 A2995 RMK AO2A SLP102 T03200174 $

TAF TAF MHSC
Valide du 27 à 21h jusqu'au 29 à 03h UTC


2721/2903 02009KT 9999 FEW200 QNH2992INS
TEMPO 2721/2801 36015G25KT
BECMG 2801/2802 36009KT 9999 BKN050 QNH2996INS
BECMG 2806/2807 29006KT 6000 BR BKN020 QNH3000INS
BECMG 2812/2813 21009KT 9999 NSW SCT040 QNH3004INS
BECMG 2817/2818 17010G15KT 9999 FEW070 SCT100 QNH2995INS
BECMG 2822/2823 21009KT 9999 SCT050 OVC070 QNH3000INS TX32/2721Z TN16/2811Z



MET'MAP, la Météo Aéronautique d'un coup d'oeil ! - Copyright ORBIFLY Décembre 2007 - Disclaimer

ORBIFLY MET'MAP TEAM :

Programmation & Développement : Alexandra Zaïnal
Sur une idée originale de : Baudouin d'Aumeries
Assistance à la programmation : Marc-Olivier Méhu
Soutien technique & logistique : Manuel Goepfert

Contact : metmap@orbifly.com




SOURCES & CREDITS :

   NOAA       Earth
Advisory